sensor_id;sensor_type;location;lat;lon;timestamp;P1;durP1;ratioP1;P2;durP2;ratioP2
46339;SDS011;47273;49.274;8.708;2022-09-03T04:02:40;8.77;;;8.07;;
46339;SDS011;47273;49.274;8.708;2022-09-03T04:05:06;8.98;;;8.27;;
46339;SDS011;47273;49.274;8.708;2022-09-03T04:07:32;11.00;;;8.35;;
46339;SDS011;47273;49.274;8.708;2022-09-03T04:09:58;9.38;;;8.68;;
46339;SDS011;47273;49.274;8.708;2022-09-03T04:12:23;9.52;;;8.63;;
46339;SDS011;47273;49.274;8.708;2022-09-03T04:14:51;9.55;;;8.75;;
46339;SDS011;47273;49.274;8.708;2022-09-03T04:17:16;9.27;;;8.52;;
46339;SDS011;47273;49.274;8.708;2022-09-03T04:19:42;9.10;;;8.40;;
46339;SDS011;47273;49.274;8.708;2022-09-03T04:22:07;9.80;;;9.00;;
46339;SDS011;47273;49.274;8.708;2022-09-03T04:24:33;9.73;;;8.88;;
46339;SDS011;47273;49.274;8.708;2022-09-03T04:26:59;9.23;;;8.52;;
46339;SDS011;47273;49.274;8.708;2022-09-03T04:29:25;9.38;;;8.57;;
46339;SDS011;47273;49.274;8.708;2022-09-03T04:31:51;9.35;;;8.63;;
46339;SDS011;47273;49.274;8.708;2022-09-03T04:34:35;9.43;;;8.60;;
46339;SDS011;47273;49.274;8.708;2022-09-03T04:37:00;9.07;;;8.38;;
46339;SDS011;47273;49.274;8.708;2022-09-03T04:39:26;9.38;;;8.43;;
46339;SDS011;47273;49.274;8.708;2022-09-03T04:41:52;8.63;;;7.88;;
46339;SDS011;47273;49.274;8.708;2022-09-03T04:44:17;10.55;;;7.85;;
46339;SDS011;47273;49.274;8.708;2022-09-03T04:46:43;8.55;;;7.95;;
46339;SDS011;47273;49.274;8.708;2022-09-03T04:49:11;12.32;;;7.88;;
46339;SDS011;47273;49.274;8.708;2022-09-03T04:51:37;8.05;;;7.40;;
46339;SDS011;47273;49.274;8.708;2022-09-03T04:54:03;8.70;;;7.90;;
46339;SDS011;47273;49.274;8.708;2022-09-03T04:56:30;9.65;;;8.88;;
46339;SDS011;47273;49.274;8.708;2022-09-03T04:59:00;8.30;;;7.60;;
46339;SDS011;47273;49.274;8.708;2022-09-03T05:01:28;8.52;;;7.80;;
46339;SDS011;47273;49.274;8.708;2022-09-03T05:03:56;8.13;;;7.53;;
46339;SDS011;47273;49.274;8.708;2022-09-03T05:06:22;8.98;;;8.27;;
46339;SDS011;47273;49.274;8.708;2022-09-03T05:08:50;10.30;;;8.07;;
46339;SDS011;47273;49.274;8.708;2022-09-03T05:11:17;9.35;;;8.43;;
46339;SDS011;47273;49.274;8.708;2022-09-03T05:13:46;8.48;;;7.78;;
46339;SDS011;47273;49.274;8.708;2022-09-03T05:16:13;8.52;;;7.70;;
46339;SDS011;47273;49.274;8.708;2022-09-03T05:18:39;8.73;;;7.82;;
46339;SDS011;47273;49.274;8.708;2022-09-03T05:21:16;9.00;;;8.30;;
46339;SDS011;47273;49.274;8.708;2022-09-03T05:23:46;9.07;;;8.38;;
46339;SDS011;47273;49.274;8.708;2022-09-03T05:26:15;8.73;;;8.02;;
46339;SDS011;47273;49.274;8.708;2022-09-03T05:28:42;9.60;;;8.80;;
46339;SDS011;47273;49.274;8.708;2022-09-03T05:31:13;9.50;;;8.60;;
46339;SDS011;47273;49.274;8.708;2022-09-03T05:33:47;9.77;;;9.07;;
46339;SDS011;47273;49.274;8.708;2022-09-03T05:36:16;9.88;;;9.07;;
46339;SDS011;47273;49.274;8.708;2022-09-03T05:38:43;9.55;;;8.85;;
46339;SDS011;47273;49.274;8.708;2022-09-03T05:41:10;9.90;;;9.20;;
46339;SDS011;47273;49.274;8.708;2022-09-03T05:43:37;10.05;;;9.25;;
46339;SDS011;47273;49.274;8.708;2022-09-03T05:46:04;9.30;;;8.60;;
46339;SDS011;47273;49.274;8.708;2022-09-03T05:48:32;10.32;;;9.13;;
46339;SDS011;47273;49.274;8.708;2022-09-03T05:51:04;9.60;;;8.80;;
46339;SDS011;47273;49.274;8.708;2022-09-03T05:53:31;9.30;;;8.60;;
46339;SDS011;47273;49.274;8.708;2022-09-03T05:56:00;9.55;;;8.77;;
46339;SDS011;47273;49.274;8.708;2022-09-03T05:58:30;10.30;;;9.32;;
46339;SDS011;47273;49.274;8.708;2022-09-03T06:00:57;10.05;;;9.15;;
46339;SDS011;47273;49.274;8.708;2022-09-03T06:03:23;9.80;;;9.10;;
46339;SDS011;47273;49.274;8.708;2022-09-03T06:05:55;9.95;;;9.25;;
46339;SDS011;47273;49.274;8.708;2022-09-03T06:08:21;9.90;;;9.00;;
46339;SDS011;47273;49.274;8.708;2022-09-03T06:10:47;9.88;;;8.82;;
46339;SDS011;47273;49.274;8.708;2022-09-03T06:13:12;9.85;;;9.10;;
46339;SDS011;47273;49.274;8.708;2022-09-03T06:15:38;11.75;;;9.10;;
46339;SDS011;47273;49.274;8.708;2022-09-03T06:18:04;10.35;;;9.45;;
46339;SDS011;47273;49.274;8.708;2022-09-03T06:20:30;10.25;;;9.38;;
46339;SDS011;47273;49.274;8.708;2022-09-03T06:22:56;9.93;;;9.23;;
46339;SDS011;47273;49.274;8.708;2022-09-03T06:25:22;10.57;;;9.77;;
46339;SDS011;47273;49.274;8.708;2022-09-03T06:27:48;10.27;;;9.32;;
46339;SDS011;47273;49.274;8.708;2022-09-03T06:30:14;9.75;;;8.85;;
46339;SDS011;47273;49.274;8.708;2022-09-03T06:32:47;10.35;;;9.45;;
46339;SDS011;47273;49.274;8.708;2022-09-03T06:35:14;10.02;;;9.20;;
46339;SDS011;47273;49.274;8.708;2022-09-03T06:37:40;10.00;;;9.25;;
46339;SDS011;47273;49.274;8.708;2022-09-03T06:40:07;10.43;;;9.52;;
46339;SDS011;47273;49.274;8.708;2022-09-03T06:42:40;10.32;;;9.50;;
46339;SDS011;47273;49.274;8.708;2022-09-03T06:45:07;11.32;;;10.13;;
46339;SDS011;47273;49.274;8.708;2022-09-03T06:47:33;10.60;;;9.70;;
46339;SDS011;47273;49.274;8.708;2022-09-03T06:49:59;11.10;;;9.98;;
46339;SDS011;47273;49.274;8.708;2022-09-03T06:52:25;10.40;;;9.48;;
46339;SDS011;47273;49.274;8.708;2022-09-03T06:54:52;10.90;;;10.10;;
46339;SDS011;47273;49.274;8.708;2022-09-03T06:57:17;11.15;;;10.02;;
46339;SDS011;47273;49.274;8.708;2022-09-03T06:59:49;11.20;;;10.30;;
46339;SDS011;47273;49.274;8.708;2022-09-03T07:02:19;10.65;;;9.75;;
46339;SDS011;47273;49.274;8.708;2022-09-03T07:04:46;13.55;;;9.57;;
46339;SDS011;47273;49.274;8.708;2022-09-03T07:07:13;11.30;;;10.07;;
46339;SDS011;47273;49.274;8.708;2022-09-03T07:09:40;10.52;;;9.68;;
46339;SDS011;47273;49.274;8.708;2022-09-03T07:12:06;10.38;;;9.57;;
46339;SDS011;47273;49.274;8.708;2022-09-03T07:14:35;10.25;;;9.35;;
46339;SDS011;47273;49.274;8.708;2022-09-03T07:17:00;11.55;;;10.25;;
46339;SDS011;47273;49.274;8.708;2022-09-03T07:19:26;11.82;;;10.82;;
46339;SDS011;47273;49.274;8.708;2022-09-03T07:21:51;13.20;;;10.68;;
46339;SDS011;47273;49.274;8.708;2022-09-03T07:24:17;11.25;;;10.15;;
46339;SDS011;47273;49.274;8.708;2022-09-03T07:26:48;10.90;;;10.10;;
46339;SDS011;47273;49.274;8.708;2022-09-03T07:29:14;11.63;;;10.52;;
46339;SDS011;47273;49.274;8.708;2022-09-03T07:31:41;11.85;;;10.73;;
46339;SDS011;47273;49.274;8.708;2022-09-03T07:34:08;13.60;;;10.60;;
46339;SDS011;47273;49.274;8.708;2022-09-03T07:39:04;12.00;;;10.85;;
46339;SDS011;47273;49.274;8.708;2022-09-03T07:41:30;11.90;;;10.90;;
46339;SDS011;47273;49.274;8.708;2022-09-03T07:43:57;12.35;;;10.95;;
46339;SDS011;47273;49.274;8.708;2022-09-03T07:46:30;12.32;;;11.15;;
46339;SDS011;47273;49.274;8.708;2022-09-03T07:48:58;12.43;;;11.43;;
46339;SDS011;47273;49.274;8.708;2022-09-03T07:51:28;12.63;;;11.57;;
46339;SDS011;47273;49.274;8.708;2022-09-03T07:53:56;12.43;;;11.27;;
46339;SDS011;47273;49.274;8.708;2022-09-03T07:56:24;12.93;;;11.70;;
46339;SDS011;47273;49.274;8.708;2022-09-03T07:58:51;12.35;;;10.95;;
46339;SDS011;47273;49.274;8.708;2022-09-03T08:01:23;13.43;;;11.15;;
46339;SDS011;47273;49.274;8.708;2022-09-03T08:04:00;11.95;;;10.73;;
46339;SDS011;47273;49.274;8.708;2022-09-03T08:06:27;12.00;;;10.88;;
46339;SDS011;47273;49.274;8.708;2022-09-03T08:08:57;12.68;;;11.05;;
46339;SDS011;47273;49.274;8.708;2022-09-03T08:31:48;11.23;;;10.32;;
46339;SDS011;47273;49.274;8.708;2022-09-03T08:35:12;14.57;;;11.20;;
46339;SDS011;47273;49.274;8.708;2022-09-03T08:37:38;14.07;;;10.93;;
46339;SDS011;47273;49.274;8.708;2022-09-03T08:40:04;12.27;;;11.07;;
46339;SDS011;47273;49.274;8.708;2022-09-03T08:42:46;13.68;;;11.13;;
46339;SDS011;47273;49.274;8.708;2022-09-03T08:45:32;12.05;;;10.85;;
46339;SDS011;47273;49.274;8.708;2022-09-03T08:50:40;12.57;;;11.32;;
46339;SDS011;47273;49.274;8.708;2022-09-03T08:53:14;12.25;;;10.90;;
46339;SDS011;47273;49.274;8.708;2022-09-03T08:56:43;15.05;;;11.25;;
46339;SDS011;47273;49.274;8.708;2022-09-03T08:58:55;12.15;;;10.93;;
46339;SDS011;47273;49.274;8.708;2022-09-03T09:04:32;11.90;;;10.77;;
46339;SDS011;47273;49.274;8.708;2022-09-03T09:08:13;12.18;;;10.98;;
46339;SDS011;47273;49.274;8.708;2022-09-03T09:10:26;16.20;;;12.07;;
46339;SDS011;47273;49.274;8.708;2022-09-03T09:13:02;12.35;;;11.25;;
46339;SDS011;47273;49.274;8.708;2022-09-03T09:16:01;12.73;;;10.40;;
46339;SDS011;47273;49.274;8.708;2022-09-03T09:21:14;12.48;;;10.95;;
46339;SDS011;47273;49.274;8.708;2022-09-03T09:23:47;12.30;;;11.02;;
46339;SDS011;47273;49.274;8.708;2022-09-03T09:26:15;12.85;;;11.25;;
46339;SDS011;47273;49.274;8.708;2022-09-03T09:28:46;12.13;;;10.93;;
46339;SDS011;47273;49.274;8.708;2022-09-03T09:31:26;12.13;;;11.10;;
46339;SDS011;47273;49.274;8.708;2022-09-03T09:33:54;12.93;;;11.63;;
46339;SDS011;47273;49.274;8.708;2022-09-03T09:36:26;13.63;;;12.30;;
46339;SDS011;47273;49.274;8.708;2022-09-03T09:38:52;13.00;;;11.75;;
46339;SDS011;47273;49.274;8.708;2022-09-03T09:41:18;13.32;;;12.02;;
46339;SDS011;47273;49.274;8.708;2022-09-03T09:43:47;14.05;;;12.65;;
46339;SDS011;47273;49.274;8.708;2022-09-03T09:46:27;13.60;;;12.50;;
46339;SDS011;47273;49.274;8.708;2022-09-03T09:48:59;13.93;;;12.50;;
46339;SDS011;47273;49.274;8.708;2022-09-03T09:51:29;13.05;;;11.95;;
46339;SDS011;47273;49.274;8.708;2022-09-03T09:54:03;13.82;;;12.50;;
46339;SDS011;47273;49.274;8.708;2022-09-03T09:56:44;13.95;;;12.77;;
46339;SDS011;47273;49.274;8.708;2022-09-03T09:59:12;15.85;;;14.23;;
46339;SDS011;47273;49.274;8.708;2022-09-03T10:01:42;14.05;;;12.75;;
46339;SDS011;47273;49.274;8.708;2022-09-03T10:04:24;13.50;;;12.32;;
46339;SDS011;47273;49.274;8.708;2022-09-03T10:09:24;13.45;;;12.38;;
46339;SDS011;47273;49.274;8.708;2022-09-03T10:14:39;13.63;;;12.30;;
46339;SDS011;47273;49.274;8.708;2022-09-03T10:17:13;13.95;;;12.75;;
46339;SDS011;47273;49.274;8.708;2022-09-03T10:19:49;13.93;;;12.48;;
46339;SDS011;47273;49.274;8.708;2022-09-03T10:22:46;14.90;;;13.43;;
46339;SDS011;47273;49.274;8.708;2022-09-03T10:25:18;16.98;;;12.70;;
46339;SDS011;47273;49.274;8.708;2022-09-03T10:27:45;14.02;;;12.63;;
46339;SDS011;47273;49.274;8.708;2022-09-03T10:30:11;14.13;;;12.75;;
46339;SDS011;47273;49.274;8.708;2022-09-03T10:35:24;13.27;;;12.13;;
46339;SDS011;47273;49.274;8.708;2022-09-03T10:38:10;13.65;;;12.52;;
46339;SDS011;47273;49.274;8.708;2022-09-03T10:41:36;14.20;;;12.93;;
46339;SDS011;47273;49.274;8.708;2022-09-03T10:43:50;13.18;;;11.73;;
46339;SDS011;47273;49.274;8.708;2022-09-03T10:46:18;12.25;;;11.07;;
46339;SDS011;47273;49.274;8.708;2022-09-03T10:57:33;12.18;;;11.18;;
46339;SDS011;47273;49.274;8.708;2022-09-03T11:00:15;12.70;;;11.65;;
46339;SDS011;47273;49.274;8.708;2022-09-03T11:11:11;12.90;;;11.90;;
46339;SDS011;47273;49.274;8.708;2022-09-03T11:13:45;12.93;;;11.93;;
46339;SDS011;47273;49.274;8.708;2022-09-03T11:18:46;11.27;;;10.38;;
46339;SDS011;47273;49.274;8.708;2022-09-03T11:21:17;14.13;;;12.77;;
46339;SDS011;47273;49.274;8.708;2022-09-03T11:23:52;12.52;;;11.52;;
46339;SDS011;47273;49.274;8.708;2022-09-03T11:26:41;12.30;;;11.20;;
46339;SDS011;47273;49.274;8.708;2022-09-03T11:37:03;12.63;;;11.63;;
46339;SDS011;47273;49.274;8.708;2022-09-03T11:39:41;12.10;;;11.05;;
46339;SDS011;47273;49.274;8.708;2022-09-03T11:42:11;16.58;;;12.27;;
46339;SDS011;47273;49.274;8.708;2022-09-03T11:44:58;12.93;;;11.85;;
46339;SDS011;47273;49.274;8.708;2022-09-03T11:47:38;12.63;;;11.60;;
46339;SDS011;47273;49.274;8.708;2022-09-03T11:50:19;12.13;;;11.23;;
46339;SDS011;47273;49.274;8.708;2022-09-03T11:52:46;12.25;;;11.27;;
46339;SDS011;47273;49.274;8.708;2022-09-03T11:55:23;12.82;;;11.65;;
46339;SDS011;47273;49.274;8.708;2022-09-03T11:57:50;12.30;;;11.40;;
46339;SDS011;47273;49.274;8.708;2022-09-03T12:00:17;12.10;;;10.93;;
46339;SDS011;47273;49.274;8.708;2022-09-03T12:02:56;11.85;;;10.93;;
46339;SDS011;47273;49.274;8.708;2022-09-03T12:16:53;11.82;;;10.70;;
46339;SDS011;47273;49.274;8.708;2022-09-03T12:19:35;11.70;;;10.48;;
46339;SDS011;47273;49.274;8.708;2022-09-03T12:22:05;10.90;;;10.10;;
46339;SDS011;47273;49.274;8.708;2022-09-03T12:24:37;11.70;;;10.70;;
46339;SDS011;47273;49.274;8.708;2022-09-03T12:27:03;11.55;;;10.68;;
46339;SDS011;47273;49.274;8.708;2022-09-03T12:29:30;12.10;;;11.20;;
46339;SDS011;47273;49.274;8.708;2022-09-03T12:32:04;12.23;;;11.20;;
46339;SDS011;47273;49.274;8.708;2022-09-03T12:34:31;11.30;;;10.40;;
46339;SDS011;47273;49.274;8.708;2022-09-03T12:36:57;11.30;;;10.50;;
46339;SDS011;47273;49.274;8.708;2022-09-03T12:39:27;11.55;;;10.65;;
46339;SDS011;47273;49.274;8.708;2022-09-03T12:42:01;11.60;;;10.73;;
46339;SDS011;47273;49.274;8.708;2022-09-03T12:44:32;11.93;;;10.93;;
46339;SDS011;47273;49.274;8.708;2022-09-03T12:49:40;11.30;;;10.43;;
46339;SDS011;47273;49.274;8.708;2022-09-03T12:52:09;11.77;;;10.88;;
46339;SDS011;47273;49.274;8.708;2022-09-03T12:54:45;12.35;;;11.35;;
46339;SDS011;47273;49.274;8.708;2022-09-03T12:57:14;12.60;;;11.60;;
46339;SDS011;47273;49.274;8.708;2022-09-03T12:59:45;12.30;;;11.13;;
46339;SDS011;47273;49.274;8.708;2022-09-03T13:02:16;10.88;;;10.02;;
46339;SDS011;47273;49.274;8.708;2022-09-03T13:04:52;12.38;;;11.48;;
46339;SDS011;47273;49.274;8.708;2022-09-03T13:09:47;12.45;;;11.40;;
46339;SDS011;47273;49.274;8.708;2022-09-03T13:12:21;11.77;;;10.95;;
46339;SDS011;47273;49.274;8.708;2022-09-03T13:14:52;11.90;;;10.95;;
46339;SDS011;47273;49.274;8.708;2022-09-03T13:17:30;12.35;;;11.20;;
46339;SDS011;47273;49.274;8.708;2022-09-03T13:25:33;11.57;;;10.70;;
46339;SDS011;47273;49.274;8.708;2022-09-03T13:30:38;12.63;;;11.52;;
46339;SDS011;47273;49.274;8.708;2022-09-03T13:33:22;12.10;;;11.10;;
46339;SDS011;47273;49.274;8.708;2022-09-03T13:35:54;11.93;;;11.02;;
46339;SDS011;47273;49.274;8.708;2022-09-03T13:41:01;11.35;;;10.55;;
46339;SDS011;47273;49.274;8.708;2022-09-03T13:43:47;12.73;;;11.73;;
46339;SDS011;47273;49.274;8.708;2022-09-03T13:49:35;12.15;;;11.25;;
46339;SDS011;47273;49.274;8.708;2022-09-03T13:52:54;12.80;;;11.77;;
46339;SDS011;47273;49.274;8.708;2022-09-03T13:55:25;12.82;;;11.80;;
46339;SDS011;47273;49.274;8.708;2022-09-03T13:58:37;12.57;;;11.68;;
46339;SDS011;47273;49.274;8.708;2022-09-03T14:01:21;12.05;;;10.88;;
46339;SDS011;47273;49.274;8.708;2022-09-03T14:03:59;12.27;;;11.35;;
46339;SDS011;47273;49.274;8.708;2022-09-03T14:12:03;11.25;;;10.25;;
46339;SDS011;47273;49.274;8.708;2022-09-03T14:25:31;11.00;;;10.00;;
46339;SDS011;47273;49.274;8.708;2022-09-03T14:41:44;12.63;;;11.50;;
46339;SDS011;47273;49.274;8.708;2022-09-03T14:50:13;11.27;;;10.38;;
46339;SDS011;47273;49.274;8.708;2022-09-03T14:55:48;13.63;;;11.20;;
46339;SDS011;47273;49.274;8.708;2022-09-03T15:01:35;11.80;;;10.80;;
46339;SDS011;47273;49.274;8.708;2022-09-03T15:09:42;11.63;;;10.73;;
46339;SDS011;47273;49.274;8.708;2022-09-03T15:15:18;11.80;;;10.68;;
46339;SDS011;47273;49.274;8.708;2022-09-03T15:18:24;12.77;;;11.65;;
46339;SDS011;47273;49.274;8.708;2022-09-03T15:21:14;12.90;;;11.70;;
46339;SDS011;47273;49.274;8.708;2022-09-03T15:28:52;12.57;;;11.48;;
46339;SDS011;47273;49.274;8.708;2022-09-03T15:42:35;12.80;;;11.77;;
46339;SDS011;47273;49.274;8.708;2022-09-03T15:45:04;13.32;;;12.25;;
46339;SDS011;47273;49.274;8.708;2022-09-03T15:47:52;12.80;;;11.70;;
46339;SDS011;47273;49.274;8.708;2022-09-03T15:59:16;13.35;;;11.70;;
46339;SDS011;47273;49.274;8.708;2022-09-03T16:01:58;13.80;;;12.52;;
46339;SDS011;47273;49.274;8.708;2022-09-03T16:04:37;12.45;;;11.45;;
46339;SDS011;47273;49.274;8.708;2022-09-03T16:15:14;13.32;;;12.13;;
46339;SDS011;47273;49.274;8.708;2022-09-03T16:17:57;13.30;;;12.10;;
46339;SDS011;47273;49.274;8.708;2022-09-03T16:25:50;13.55;;;12.25;;
46339;SDS011;47273;49.274;8.708;2022-09-03T16:28:42;12.73;;;11.73;;
46339;SDS011;47273;49.274;8.708;2022-09-03T16:37:32;12.98;;;11.88;;
46339;SDS011;47273;49.274;8.708;2022-09-03T16:48:16;12.82;;;11.75;;
46339;SDS011;47273;49.274;8.708;2022-09-03T16:59:43;12.77;;;11.68;;
46339;SDS011;47273;49.274;8.708;2022-09-03T17:20:56;11.93;;;10.73;;
46339;SDS011;47273;49.274;8.708;2022-09-03T17:23:52;11.50;;;10.60;;
46339;SDS011;47273;49.274;8.708;2022-09-03T17:26:33;12.23;;;11.23;;
46339;SDS011;47273;49.274;8.708;2022-09-03T17:35:46;11.15;;;10.25;;
46339;SDS011;47273;49.274;8.708;2022-09-03T17:41:45;11.05;;;10.25;;
46339;SDS011;47273;49.274;8.708;2022-09-03T17:49:44;11.27;;;10.38;;
46339;SDS011;47273;49.274;8.708;2022-09-03T17:55:37;11.48;;;10.57;;
46339;SDS011;47273;49.274;8.708;2022-09-03T17:58:07;12.40;;;11.40;;
46339;SDS011;47273;49.274;8.708;2022-09-03T18:05:59;11.67;;;10.57;;
46339;SDS011;47273;49.274;8.708;2022-09-03T18:14:31;10.25;;;9.45;;
46339;SDS011;47273;49.274;8.708;2022-09-03T18:17:08;10.52;;;9.55;;
46339;SDS011;47273;49.274;8.708;2022-09-03T18:19:53;12.13;;;11.05;;
46339;SDS011;47273;49.274;8.708;2022-09-03T18:22:52;12.07;;;11.13;;
46339;SDS011;47273;49.274;8.708;2022-09-03T18:25:46;10.55;;;9.65;;
46339;SDS011;47273;49.274;8.708;2022-09-03T18:28:41;11.02;;;9.70;;
46339;SDS011;47273;49.274;8.708;2022-09-03T18:31:41;11.80;;;10.70;;
46339;SDS011;47273;49.274;8.708;2022-09-03T18:34:30;11.48;;;10.55;;
46339;SDS011;47273;49.274;8.708;2022-09-03T18:37:20;11.13;;;10.23;;
46339;SDS011;47273;49.274;8.708;2022-09-03T18:40:07;12.35;;;11.15;;
46339;SDS011;47273;49.274;8.708;2022-09-03T18:42:59;12.13;;;11.13;;
46339;SDS011;47273;49.274;8.708;2022-09-03T18:46:09;11.77;;;10.68;;
46339;SDS011;47273;49.274;8.708;2022-09-03T18:49:10;11.18;;;10.23;;
46339;SDS011;47273;49.274;8.708;2022-09-03T18:52:19;18.40;;;11.20;;
46339;SDS011;47273;49.274;8.708;2022-09-03T19:07:20;15.98;;;11.23;;
46339;SDS011;47273;49.274;8.708;2022-09-03T19:10:24;11.27;;;10.27;;
46339;SDS011;47273;49.274;8.708;2022-09-03T19:13:22;11.13;;;9.75;;
46339;SDS011;47273;49.274;8.708;2022-09-03T19:22:37;10.80;;;9.85;;
46339;SDS011;47273;49.274;8.708;2022-09-03T19:25:22;12.90;;;9.73;;
46339;SDS011;47273;49.274;8.708;2022-09-03T19:33:57;11.68;;;10.57;;
46339;SDS011;47273;49.274;8.708;2022-09-03T19:48:59;11.57;;;10.68;;
46339;SDS011;47273;49.274;8.708;2022-09-03T19:54:49;12.27;;;11.15;;
46339;SDS011;47273;49.274;8.708;2022-09-03T19:57:36;11.90;;;10.85;;
46339;SDS011;47273;49.274;8.708;2022-09-03T20:00:23;12.32;;;10.20;;
46339;SDS011;47273;49.274;8.708;2022-09-03T20:03:07;12.40;;;11.27;;
46339;SDS011;47273;49.274;8.708;2022-09-03T20:05:55;12.00;;;10.90;;
46339;SDS011;47273;49.274;8.708;2022-09-03T20:08:39;12.35;;;11.35;;
46339;SDS011;47273;49.274;8.708;2022-09-03T20:11:24;11.80;;;10.73;;
46339;SDS011;47273;49.274;8.708;2022-09-03T20:13:54;11.60;;;10.60;;
46339;SDS011;47273;49.274;8.708;2022-09-03T20:27:18;11.73;;;10.38;;
46339;SDS011;47273;49.274;8.708;2022-09-03T20:30:07;11.13;;;10.23;;
46339;SDS011;47273;49.274;8.708;2022-09-03T20:35:30;10.88;;;9.98;;
46339;SDS011;47273;49.274;8.708;2022-09-03T20:46:07;14.60;;;11.00;;
46339;SDS011;47273;49.274;8.708;2022-09-03T20:49:08;11.10;;;10.00;;
46339;SDS011;47273;49.274;8.708;2022-09-03T20:54:31;11.75;;;10.65;;
46339;SDS011;47273;49.274;8.708;2022-09-03T20:57:30;14.25;;;11.57;;
46339;SDS011;47273;49.274;8.708;2022-09-03T21:00:05;12.45;;;11.32;;
46339;SDS011;47273;49.274;8.708;2022-09-03T21:05:30;12.25;;;10.73;;
46339;SDS011;47273;49.274;8.708;2022-09-03T21:19:02;12.13;;;11.02;;
46339;SDS011;47273;49.274;8.708;2022-09-03T21:26:42;12.65;;;11.27;;
46339;SDS011;47273;49.274;8.708;2022-09-03T21:34:26;12.38;;;11.27;;
46339;SDS011;47273;49.274;8.708;2022-09-03T21:37:10;13.93;;;11.95;;
46339;SDS011;47273;49.274;8.708;2022-09-03T21:42:12;13.10;;;11.80;;
46339;SDS011;47273;49.274;8.708;2022-09-03T21:44:46;13.45;;;12.07;;
46339;SDS011;47273;49.274;8.708;2022-09-03T21:47:24;13.07;;;11.77;;
46339;SDS011;47273;49.274;8.708;2022-09-03T21:49:57;14.05;;;11.52;;
46339;SDS011;47273;49.274;8.708;2022-09-03T21:52:36;13.45;;;12.25;;
